Time;durP1;ratioP1;P1;durP2;ratioP2;P2;SDS_P1;SDS_P2;PMS_P1;PMS_P2;Temp;Humidity;BMP_temperature;BMP_pressure;BME280_temperature;BME280_humidity;BME280_pressure;Samples;Min_cycle;Max_cycle;Signal;HPM_P1;HPM_P2
2022/03/17 00:01:44;;;;;;;33.60;23.52;;;11.00;99.90;;;;;;5018236;28;20065;-76
2022/03/17 00:04:10;;;;;;;30.35;23.13;;;11.00;99.90;;;;;;5007741;28;20061;-75
2022/03/17 00:06:35;;;;;;;29.80;24.83;;;11.00;99.90;;;;;;4987689;28;20046;-76
2022/03/17 00:09:03;;;;;;;29.52;23.08;;;10.90;99.90;;;;;;4979643;28;20050;-75
2022/03/17 00:11:29;;;;;;;32.42;23.98;;;10.90;99.90;;;;;;5008805;28;20050;-74
2022/03/17 00:13:55;;;;;;;33.28;24.52;;;10.90;99.90;;;;;;5017975;28;20345;-75
2022/03/17 00:16:20;;;;;;;31.55;24.30;;;10.90;99.90;;;;;;5017771;28;20033;-76
2022/03/17 00:18:46;;;;;;;32.83;24.15;;;10.90;99.90;;;;;;5017447;28;20049;-77
2022/03/17 00:21:12;;;;;;;30.33;23.20;;;10.90;99.90;;;;;;5017865;28;20038;-75
2022/03/17 00:23:37;;;;;;;30.05;24.05;;;10.80;99.90;;;;;;5000435;28;20107;-75
2022/03/17 00:26:03;;;;;;;30.20;23.20;;;10.70;99.90;;;;;;5017123;28;20049;-76
2022/03/17 00:28:28;;;;;;;29.67;23.52;;;10.70;99.90;;;;;;5018027;28;20045;-76
2022/03/17 00:30:54;;;;;;;30.40;23.85;;;10.70;99.90;;;;;;5017906;28;20044;-74
2022/03/17 00:33:19;;;;;;;31.50;24.02;;;10.70;99.90;;;;;;5015953;28;20057;-76
2022/03/17 00:35:45;;;;;;;35.38;25.10;;;10.70;99.90;;;;;;5017901;28;20056;-74
2022/03/17 00:38:16;;;;;;;31.80;24.88;;;10.70;99.90;;;;;;5017864;28;20046;-76
2022/03/17 00:40:44;;;;;;;29.83;23.55;;;10.70;99.90;;;;;;5017616;28;20088;-75
2022/03/17 00:43:12;;;;;;;30.38;24.15;;;10.70;99.90;;;;;;5017784;28;20092;-74
2022/03/17 00:45:38;;;;;;;34.90;23.40;;;10.70;99.90;;;;;;5000500;28;20099;-76
2022/03/17 00:48:05;;;;;;;29.48;23.55;;;10.70;99.90;;;;;;5003974;28;20057;-76
2022/03/17 00:50:30;;;;;;;32.25;24.85;;;10.70;99.90;;;;;;4997688;28;20074;-75
2022/03/17 00:52:56;;;;;;;30.92;24.25;;;10.70;99.90;;;;;;4997919;28;20142;-77
2022/03/17 00:55:22;;;;;;;32.33;25.02;;;10.70;99.90;;;;;;4997693;28;20043;-75
2022/03/17 00:57:49;;;;;;;31.27;24.58;;;10.60;99.90;;;;;;4997539;28;20046;-76
2022/03/17 01:00:16;;;;;;;30.65;24.35;;;10.60;99.90;;;;;;4996735;28;20054;-75
2022/03/17 01:02:47;;;;;;;31.58;23.95;;;10.60;99.90;;;;;;4996060;28;20081;-74
2022/03/17 01:05:13;;;;;;;30.08;24.45;;;10.70;99.90;;;;;;4997048;28;20096;-75
2022/03/17 01:07:38;;;;;;;31.52;24.13;;;10.60;99.90;;;;;;4997966;28;20345;-75
2022/03/17 01:10:05;;;;;;;31.17;25.40;;;10.60;99.90;;;;;;4997897;28;20042;-74
2022/03/17 01:12:31;;;;;;;33.50;25.13;;;10.60;99.90;;;;;;4997708;28;20089;-75
2022/03/17 01:14:57;;;;;;;33.08;25.02;;;10.60;99.90;;;;;;4996379;28;20125;-76
2022/03/17 01:17:23;;;;;;;31.08;25.90;;;10.60;99.90;;;;;;4997343;28;20125;-75
2022/03/17 01:19:48;;;;;;;38.60;26.10;;;10.50;99.90;;;;;;4997451;28;20117;-76
2022/03/17 01:22:14;;;;;;;32.65;26.77;;;10.50;99.90;;;;;;4997561;28;20081;-75
2022/03/17 01:24:40;;;;;;;35.00;26.80;;;10.50;99.90;;;;;;4996920;28;20353;-75
2022/03/17 01:27:05;;;;;;;33.47;27.10;;;10.50;99.90;;;;;;4997102;28;20034;-75
2022/03/17 01:29:31;;;;;;;35.38;25.88;;;10.40;99.90;;;;;;4996838;28;20077;-75
2022/03/17 01:31:56;;;;;;;36.17;28.13;;;10.40;99.90;;;;;;4996200;28;20042;-75
2022/03/17 01:34:22;;;;;;;34.60;26.83;;;10.40;99.90;;;;;;4997028;28;20046;-75
2022/03/17 01:36:48;;;;;;;35.55;27.17;;;10.40;99.90;;;;;;4996809;28;20045;-75
2022/03/17 01:39:13;;;;;;;35.00;27.30;;;10.40;99.90;;;;;;4997143;28;20445;-75
2022/03/17 01:41:39;;;;;;;39.15;27.60;;;10.40;99.90;;;;;;4997096;28;20133;-75
2022/03/17 01:44:06;;;;;;;36.42;27.88;;;10.40;99.90;;;;;;4996580;28;20441;-76
2022/03/17 01:47:26;;;;;;;37.30;26.33;;;10.40;99.90;;;;;;4995445;28;20433;-75
2022/03/17 01:49:21;;;;;;;34.20;27.98;;;10.40;99.90;;;;;;4995534;28;20125;-74
2022/03/17 01:51:47;;;;;;;41.83;29.17;;;10.40;99.90;;;;;;4996876;28;20038;-75
2022/03/17 01:54:14;;;;;;;38.42;28.48;;;10.30;99.90;;;;;;4996635;28;20042;-75
2022/03/17 01:56:40;;;;;;;38.22;29.38;;;10.30;99.90;;;;;;4995951;28;20508;-75
2022/03/17 01:59:06;;;;;;;38.20;29.65;;;10.30;99.90;;;;;;5009061;28;20372;-76
2022/03/17 02:01:31;;;;;;;37.20;29.60;;;10.30;99.90;;;;;;5015990;28;20041;-75
2022/03/17 02:03:57;;;;;;;39.42;29.75;;;10.30;99.90;;;;;;5013087;28;20045;-76
2022/03/17 02:06:23;;;;;;;38.15;30.23;;;10.20;99.90;;;;;;4987836;28;20042;-74
2022/03/17 02:08:49;;;;;;;40.40;30.17;;;10.30;99.90;;;;;;4960299;28;20051;-76
2022/03/17 02:13:59;;;;;;;38.97;30.67;;;10.20;99.90;;;;;;4989730;28;20042;-76
2022/03/17 02:16:28;;;;;;;37.88;29.67;;;10.20;99.90;;;;;;5015739;28;20042;-76
2022/03/17 02:18:54;;;;;;;41.72;31.33;;;10.20;99.90;;;;;;5016117;28;20117;-75
2022/03/17 02:21:19;;;;;;;42.40;32.38;;;10.20;99.90;;;;;;5015793;28;20184;-75
2022/03/17 02:26:31;;;;;;;41.65;30.40;;;10.20;99.90;;;;;;5015566;28;20041;-75
2022/03/17 02:28:58;;;;;;;44.90;32.40;;;10.20;99.90;;;;;;5006994;28;20375;-76
2022/03/17 02:31:24;;;;;;;44.78;32.95;;;10.20;99.90;;;;;;4996138;28;20096;-74
2022/03/17 02:33:51;;;;;;;38.70;31.27;;;10.20;99.90;;;;;;4996032;28;20039;-74
2022/03/17 02:36:18;;;;;;;40.97;32.47;;;10.10;99.90;;;;;;4995713;28;20056;-76
2022/03/17 02:38:44;;;;;;;40.53;32.47;;;10.20;99.90;;;;;;4995765;28;20349;-75
2022/03/17 02:41:09;;;;;;;38.65;31.05;;;10.10;99.90;;;;;;4996032;28;20034;-75
2022/03/17 02:43:37;;;;;;;42.33;32.83;;;10.10;99.90;;;;;;4985899;28;20064;-76
2022/03/17 02:46:02;;;;;;;42.25;32.20;;;10.10;99.90;;;;;;5015357;28;20121;-74
2022/03/17 02:48:28;;;;;;;41.63;33.08;;;10.20;99.90;;;;;;5015243;28;20415;-76
2022/03/17 02:50:54;;;;;;;42.30;32.72;;;10.20;99.90;;;;;;5013456;28;20037;-76
2022/03/17 02:53:19;;;;;;;39.08;31.25;;;10.20;99.90;;;;;;5015450;28;20080;-75
2022/03/17 02:55:46;;;;;;;41.95;32.05;;;10.20;99.90;;;;;;4998449;28;20129;-74
2022/03/17 02:58:13;;;;;;;40.05;32.28;;;10.20;99.90;;;;;;5015373;28;20057;-75
2022/03/17 03:00:39;;;;;;;40.90;32.33;;;10.20;99.90;;;;;;5015095;28;20037;-76
2022/03/17 03:03:08;;;;;;;45.20;33.90;;;10.10;99.90;;;;;;5015253;28;20034;-76
2022/03/17 03:05:34;;;;;;;45.95;35.63;;;10.10;99.90;;;;;;4992542;28;20070;-75
2022/03/17 03:08:02;;;;;;;50.65;36.88;;;10.00;99.90;;;;;;5006635;28;20041;-75
2022/03/17 03:10:27;;;;;;;49.10;37.40;;;10.00;99.90;;;;;;5014278;28;20445;-76
2022/03/17 03:12:53;;;;;;;49.75;37.97;;;9.90;99.90;;;;;;4997764;28;20056;-76
2022/03/17 03:15:19;;;;;;;50.67;38.97;;;9.80;99.90;;;;;;4997685;28;20042;-76
2022/03/17 03:17:45;;;;;;;53.35;39.58;;;9.80;99.90;;;;;;5015015;28;20072;-75
2022/03/17 03:20:11;;;;;;;55.20;40.45;;;9.70;99.90;;;;;;5007885;28;20460;-76
2022/03/17 03:22:39;;;;;;;59.03;41.00;;;9.60;99.90;;;;;;4997015;28;20048;-76
2022/03/17 03:25:07;;;;;;;56.72;39.78;;;9.60;99.90;;;;;;4982259;28;20042;-75
2022/03/17 03:27:32;;;;;;;55.47;41.00;;;9.60;99.90;;;;;;5000018;28;20076;-76
2022/03/17 03:29:58;;;;;;;59.80;42.08;;;9.50;99.90;;;;;;4999643;28;20034;-75
2022/03/17 03:32:25;;;;;;;58.85;42.00;;;9.50;99.90;;;;;;4999541;28;20038;-74
2022/03/17 03:34:51;;;;;;;60.33;41.78;;;9.50;99.90;;;;;;5003912;28;20108;-75
2022/03/17 03:37:23;;;;;;;63.45;42.25;;;9.40;99.90;;;;;;5019112;28;20363;-75
2022/03/17 03:39:54;;;;;;;65.88;44.65;;;9.40;99.90;;;;;;5015364;28;20038;-75
2022/03/17 03:42:20;;;;;;;65.05;45.38;;;9.40;99.90;;;;;;4978935;28;20449;-76
2022/03/17 03:44:46;;;;;;;65.32;44.42;;;9.30;99.90;;;;;;4979305;28;20492;-74
2022/03/17 03:47:13;;;;;;;66.57;45.78;;;9.30;99.90;;;;;;4979075;28;20075;-74
2022/03/17 03:49:39;;;;;;;69.38;44.53;;;9.30;99.90;;;;;;4957837;28;20073;-75
2022/03/17 03:52:09;;;;;;;68.63;44.63;;;9.20;99.90;;;;;;5018483;28;20037;-74
2022/03/17 03:54:35;;;;;;;71.78;47.13;;;9.20;99.90;;;;;;5018895;28;20053;-75
2022/03/17 03:57:01;;;;;;;73.20;46.20;;;9.20;99.90;;;;;;5018643;28;20050;-75
2022/03/17 03:59:29;;;;;;;76.05;44.20;;;9.20;99.90;;;;;;5016608;28;20069;-76
2022/03/17 04:02:00;;;;;;;72.28;43.13;;;9.20;99.90;;;;;;5018272;28;20053;-74
2022/03/17 04:04:27;;;;;;;44.72;29.30;;;9.30;99.90;;;;;;5017998;28;20084;-75
2022/03/17 04:06:56;;;;;;;27.88;18.77;;;9.20;99.90;;;;;;5018162;28;20064;-74
2022/03/17 04:09:24;;;;;;;25.73;16.30;;;8.90;99.90;;;;;;5018089;28;20030;-75
2022/03/17 04:11:51;;;;;;;22.88;15.43;;;8.60;99.90;;;;;;5018256;28;20095;-75
2022/03/17 04:14:16;;;;;;;23.83;16.10;;;8.40;99.90;;;;;;5017848;28;20089;-75
2022/03/17 04:16:43;;;;;;;25.27;16.60;;;8.20;99.90;;;;;;5015161;28;20408;-75
2022/03/17 04:19:15;;;;;;;22.60;16.88;;;8.10;99.90;;;;;;5017922;28;20037;-75
2022/03/17 04:21:41;;;;;;;24.55;16.38;;;8.00;99.90;;;;;;5017429;28;20479;-75
2022/03/17 04:24:07;;;;;;;27.80;16.92;;;8.00;99.90;;;;;;5000307;28;20124;-76
2022/03/17 04:26:33;;;;;;;30.38;19.52;;;7.90;99.90;;;;;;5017874;28;20073;-74
2022/03/17 04:28:59;;;;;;;32.40;18.25;;;7.90;99.90;;;;;;4999996;28;20092;-75
2022/03/17 04:31:24;;;;;;;27.17;15.85;;;7.80;99.90;;;;;;5017882;28;20068;-75
2022/03/17 04:33:50;;;;;;;22.98;15.88;;;7.80;99.90;;;;;;5016969;28;20038;-74
2022/03/17 04:36:17;;;;;;;25.02;14.77;;;7.70;99.90;;;;;;5017915;28;20037;-74
2022/03/17 04:38:43;;;;;;;27.15;15.32;;;7.60;99.90;;;;;;5017605;28;20042;-75
2022/03/17 04:41:12;;;;;;;29.55;16.90;;;7.60;99.90;;;;;;5014214;28;20066;-76
2022/03/17 04:43:39;;;;;;;27.05;16.98;;;7.60;99.90;;;;;;5017064;28;20041;-74
2022/03/17 04:46:07;;;;;;;35.78;16.75;;;7.50;99.90;;;;;;5017734;28;20355;-75
2022/03/17 04:48:33;;;;;;;32.88;18.55;;;7.50;99.90;;;;;;5017410;28;20399;-74
2022/03/17 04:50:58;;;;;;;37.92;20.23;;;7.50;99.90;;;;;;5017720;28;20055;-75
2022/03/17 04:53:27;;;;;;;43.45;20.75;;;7.40;99.90;;;;;;5017457;28;20042;-74
2022/03/17 04:55:54;;;;;;;46.92;22.70;;;7.40;99.90;;;;;;5016703;28;20037;-74
2022/03/17 04:58:20;;;;;;;46.38;24.80;;;7.50;99.90;;;;;;5010375;28;20452;-74
2022/03/17 05:00:46;;;;;;;51.95;23.63;;;7.50;99.90;;;;;;4997170;28;20465;-74
2022/03/17 05:03:12;;;;;;;41.58;18.25;;;7.50;99.90;;;;;;4997623;28;20046;-74
2022/03/17 05:05:38;;;;;;;33.53;16.90;;;7.40;99.90;;;;;;4997889;28;20041;-74
2022/03/17 05:08:05;;;;;;;34.53;14.90;;;7.40;99.90;;;;;;4997659;28;20117;-74
2022/03/17 05:10:31;;;;;;;33.35;15.45;;;7.30;99.90;;;;;;4997743;28;20046;-75
2022/03/17 05:12:57;;;;;;;33.03;14.48;;;7.30;99.90;;;;;;4997087;28;20372;-74
2022/03/17 05:15:23;;;;;;;33.60;13.75;;;7.30;99.90;;;;;;4997289;28;20045;-74
2022/03/17 05:17:48;;;;;;;26.33;11.45;;;7.30;99.90;;;;;;4997375;28;20527;-74
2022/03/17 05:20:14;;;;;;;34.95;12.07;;;7.30;99.90;;;;;;4996933;28;20089;-75
2022/03/17 05:22:41;;;;;;;31.70;8.85;;;7.30;99.90;;;;;;4997208;28;20460;-75
2022/03/17 05:25:08;;;;;;;38.22;9.77;;;7.20;99.90;;;;;;4997139;28;20132;-74
2022/03/17 05:27:41;;;;;;;23.38;6.43;;;7.40;99.90;;;;;;4996995;28;20042;-74
2022/03/17 05:30:10;;;;;;;31.02;7.50;;;7.20;99.90;;;;;;4997196;28;20046;-74
2022/03/17 05:32:35;;;;;;;21.05;7.72;;;7.20;99.90;;;;;;4997281;28;20046;-74
2022/03/17 05:35:01;;;;;;;28.65;7.00;;;7.30;99.90;;;;;;4996680;28;20038;-75
2022/03/17 05:37:26;;;;;;;25.40;7.70;;;7.30;99.90;;;;;;4997137;28;20129;-74
2022/03/17 05:39:52;;;;;;;21.52;7.03;;;7.30;99.90;;;;;;4996577;28;20050;-75
2022/03/17 05:42:17;;;;;;;22.63;7.75;;;7.30;99.90;;;;;;4996376;28;20042;-74
2022/03/17 05:44:43;;;;;;;25.45;7.28;;;7.30;99.90;;;;;;4996405;28;20034;-74
2022/03/17 05:47:09;;;;;;;23.02;8.52;;;7.30;99.90;;;;;;4992523;28;20043;-74
2022/03/17 05:49:35;;;;;;;41.13;9.95;;;7.30;99.90;;;;;;4982610;28;20092;-74
2022/03/17 05:52:00;;;;;;;25.15;7.70;;;7.30;99.90;;;;;;4996384;28;20085;-74
2022/03/17 05:54:26;;;;;;;22.45;8.55;;;7.30;99.90;;;;;;4995050;28;20034;-75
2022/03/17 05:56:52;;;;;;;31.45;9.32;;;7.30;99.90;;;;;;4996340;28;20057;-74
2022/03/17 05:59:17;;;;;;;24.17;7.47;;;7.30;99.90;;;;;;4996868;28;20108;-74
2022/03/17 06:01:43;;;;;;;18.85;5.03;;;7.30;99.90;;;;;;4995647;28;20121;-74
2022/03/17 06:04:08;;;;;;;18.63;4.60;;;7.20;99.90;;;;;;4976293;28;20046;-75
2022/03/17 06:06:34;;;;;;;15.20;4.20;;;7.20;99.90;;;;;;4983696;28;20042;-77
2022/03/17 06:09:01;;;;;;;15.10;4.18;;;7.10;99.90;;;;;;4976833;28;20038;-74
2022/03/17 06:11:29;;;;;;;14.13;4.15;;;7.10;99.90;;;;;;4976926;28;20057;-76
2022/03/17 06:13:56;;;;;;;18.85;4.40;;;7.20;99.90;;;;;;4976484;28;20051;-74
2022/03/17 06:16:23;;;;;;;22.58;4.45;;;7.10;99.90;;;;;;4993589;28;20053;-74
2022/03/17 06:18:49;;;;;;;19.10;4.28;;;7.20;99.90;;;;;;4995634;28;20042;-74
2022/03/17 06:21:15;;;;;;;19.00;5.03;;;7.10;99.90;;;;;;4995711;28;20403;-72
2022/03/17 06:23:43;;;;;;;15.90;5.13;;;7.20;99.90;;;;;;4995893;28;20038;-72
2022/03/17 06:26:08;;;;;;;20.40;4.60;;;7.10;99.90;;;;;;4996249;28;20046;-73
2022/03/17 06:28:34;;;;;;;25.40;5.28;;;7.10;99.90;;;;;;4995641;28;20035;-74
2022/03/17 06:31:01;;;;;;;17.83;4.13;;;7.10;99.90;;;;;;4995422;28;20042;-76
2022/03/17 06:33:28;;;;;;;19.48;4.10;;;7.10;99.90;;;;;;4996128;28;20074;-75
2022/03/17 06:35:57;;;;;;;19.42;4.72;;;7.10;99.90;;;;;;4995891;28;20034;-74
2022/03/17 06:38:25;;;;;;;17.05;4.68;;;7.10;99.90;;;;;;4995291;28;20411;-72
2022/03/17 06:40:51;;;;;;;28.42;5.25;;;7.10;99.90;;;;;;4994718;28;20133;-72
2022/03/17 06:43:17;;;;;;;20.55;4.70;;;7.10;99.90;;;;;;4996001;28;20077;-73
2022/03/17 06:45:44;;;;;;;20.00;4.30;;;7.10;99.90;;;;;;4994823;28;20053;-73
2022/03/17 06:48:09;;;;;;;24.88;4.20;;;7.10;99.90;;;;;;4994746;28;20038;-73
2022/03/17 06:50:35;;;;;;;22.65;4.30;;;7.00;99.90;;;;;;4995863;28;20042;-73
2022/03/17 06:53:01;;;;;;;27.23;4.57;;;7.00;99.90;;;;;;4994554;28;20046;-73
2022/03/17 06:55:27;;;;;;;23.15;4.85;;;7.10;99.90;;;;;;4995204;28;20035;-73
2022/03/17 06:57:52;;;;;;;23.70;4.20;;;7.10;99.90;;;;;;4994677;28;20104;-72
2022/03/17 07:00:19;;;;;;;17.90;4.28;;;7.00;99.90;;;;;;4995514;28;20069;-73
2022/03/17 07:02:45;;;;;;;14.65;3.13;;;7.10;99.90;;;;;;4995142;28;20042;-73
2022/03/17 07:05:11;;;;;;;30.88;5.15;;;7.00;99.90;;;;;;4995289;28;20034;-72
2022/03/17 07:07:39;;;;;;;20.90;5.03;;;7.10;99.90;;;;;;4995351;28;20048;-74
2022/03/17 07:10:07;;;;;;;20.45;4.43;;;7.10;99.90;;;;;;4995161;28;20101;-73
2022/03/17 07:12:34;;;;;;;30.48;5.38;;;7.10;99.90;;;;;;4995302;28;20053;-73
2022/03/17 07:14:59;;;;;;;16.10;4.03;;;7.10;99.90;;;;;;4995454;28;20061;-72
2022/03/17 07:17:26;;;;;;;21.92;3.88;;;7.10;99.90;;;;;;4995193;28;20046;-74
2022/03/17 07:22:24;;;;;;;24.90;4.88;;;7.10;99.90;;;;;;4995126;28;20049;-74
2022/03/17 07:24:49;;;;;;;18.38;4.10;;;7.10;99.90;;;;;;4995378;28;20364;-73
2022/03/17 07:27:15;;;;;;;15.68;3.90;;;7.20;99.90;;;;;;4995223;28;20041;-72
2022/03/17 07:29:41;;;;;;;32.90;5.30;;;7.10;99.90;;;;;;4994688;28;20415;-73
2022/03/17 07:32:06;;;;;;;17.88;4.75;;;7.10;99.90;;;;;;4995015;28;20041;-74
2022/03/17 07:34:32;;;;;;;27.10;4.90;;;7.10;99.90;;;;;;4994381;28;20052;-74
2022/03/17 07:36:58;;;;;;;20.27;5.25;;;7.20;99.90;;;;;;4994929;28;20050;-73
2022/03/17 07:39:23;;;;;;;23.70;4.45;;;7.10;99.90;;;;;;4995428;28;20073;-73
2022/03/17 07:41:49;;;;;;;24.83;4.85;;;7.10;99.90;;;;;;4995012;28;20056;-74
2022/03/17 07:44:14;;;;;;;23.33;4.70;;;7.20;99.90;;;;;;4995029;28;20457;-74
2022/03/17 07:46:41;;;;;;;18.55;4.15;;;7.20;99.90;;;;;;4995403;28;20038;-73
2022/03/17 07:49:06;;;;;;;25.90;5.43;;;7.10;99.90;;;;;;4994899;28;20046;-73
2022/03/17 07:51:32;;;;;;;24.02;4.82;;;7.10;99.90;;;;;;4994767;28;20046;-73
2022/03/17 07:53:57;;;;;;;23.58;5.15;;;7.20;99.90;;;;;;4994969;28;20371;-73
2022/03/17 07:56:23;;;;;;;23.25;4.82;;;7.10;99.90;;;;;;4994545;28;20054;-73
2022/03/17 07:58:49;;;;;;;17.08;3.83;;;7.10;99.90;;;;;;4996837;28;20049;-72
2022/03/17 08:01:16;;;;;;;27.60;4.65;;;7.10;99.90;;;;;;5015269;28;20097;-73
2022/03/17 08:03:41;;;;;;;15.73;3.50;;;7.20;99.90;;;;;;4997383;28;20042;-73
2022/03/17 08:06:07;;;;;;;19.80;4.88;;;7.20;99.90;;;;;;5014335;28;20045;-73
2022/03/17 08:08:34;;;;;;;18.90;4.53;;;7.20;99.90;;;;;;5016012;28;20048;-73
2022/03/17 08:11:00;;;;;;;24.35;4.60;;;7.10;99.90;;;;;;5017869;28;20049;-73
2022/03/17 08:13:26;;;;;;;20.33;3.75;;;7.20;99.90;;;;;;5018264;28;20372;-73
2022/03/17 08:15:54;;;;;;;17.00;3.70;;;7.20;99.90;;;;;;5017007;28;20463;-73
2022/03/17 08:18:20;;;;;;;18.48;4.82;;;7.30;99.90;;;;;;5017925;28;20121;-73
2022/03/17 08:20:45;;;;;;;21.33;4.65;;;7.30;99.90;;;;;;5017899;28;20073;-73
2022/03/17 08:23:15;;;;;;;20.10;4.40;;;7.40;99.90;;;;;;5017819;28;20052;-73
2022/03/17 08:25:41;;;;;;;27.95;5.63;;;7.40;99.90;;;;;;5017524;28;20050;-73
2022/03/17 08:28:08;;;;;;;33.22;5.70;;;7.40;99.90;;;;;;5017938;28;20048;-73
2022/03/17 08:30:36;;;;;;;21.67;5.18;;;7.40;99.90;;;;;;5018172;28;20152;-73
2022/03/17 08:33:01;;;;;;;22.15;4.65;;;7.40;99.90;;;;;;5017543;28;20125;-73
2022/03/17 08:35:27;;;;;;;21.25;3.92;;;7.40;99.90;;;;;;5017933;28;20129;-72
2022/03/17 08:37:53;;;;;;;18.30;4.03;;;7.40;99.90;;;;;;5014450;28;20038;-73
2022/03/17 08:40:19;;;;;;;15.82;3.35;;;7.50;99.90;;;;;;5017586;28;20050;-73
2022/03/17 08:42:45;;;;;;;21.27;4.57;;;7.60;99.90;;;;;;5017892;28;20379;-73
2022/03/17 08:50:40;;;;;;;16.00;4.15;;;7.80;99.90;;;;;;5017500;28;20049;-73
2022/03/17 08:53:07;;;;;;;24.60;4.28;;;7.90;99.90;;;;;;5017114;28;20042;-73
2022/03/17 08:55:34;;;;;;;15.00;4.50;;;7.80;99.90;;;;;;5017535;28;20041;-73
2022/03/17 08:58:00;;;;;;;17.30;3.38;;;7.70;99.90;;;;;;5017269;28;20062;-72
2022/03/17 09:00:25;;;;;;;21.45;4.18;;;7.80;99.90;;;;;;5012477;28;20036;-73
2022/03/17 09:02:53;;;;;;;17.65;4.07;;;7.90;99.90;;;;;;4997682;28;20452;-73
2022/03/17 09:05:19;;;;;;;20.10;3.97;;;7.90;99.90;;;;;;4997523;28;20038;-73
2022/03/17 09:07:44;;;;;;;21.17;5.00;;;8.00;99.90;;;;;;4997752;28;20046;-73
2022/03/17 09:10:10;;;;;;;22.83;4.18;;;8.10;99.90;;;;;;4997400;28;20046;-73
2022/03/17 09:12:38;;;;;;;28.25;6.80;;;8.00;99.90;;;;;;4998086;28;20046;-74
2022/03/17 09:15:04;;;;;;;19.85;4.22;;;8.00;99.90;;;;;;4997285;28;20130;-73
2022/03/17 09:17:30;;;;;;;20.10;3.95;;;8.00;99.90;;;;;;4997262;28;20077;-73
2022/03/17 09:19:56;;;;;;;16.20;3.58;;;8.00;99.90;;;;;;5009214;28;20073;-73
2022/03/17 09:22:21;;;;;;;28.15;6.82;;;7.90;99.90;;;;;;5016827;28;20045;-74
2022/03/17 09:24:48;;;;;;;25.73;4.05;;;7.80;99.90;;;;;;5016931;28;20042;-73
2022/03/17 09:27:15;;;;;;;17.63;3.83;;;7.90;99.90;;;;;;5005021;28;20408;-73
2022/03/17 09:29:41;;;;;;;18.02;3.92;;;7.90;99.90;;;;;;4996819;28;20046;-73
2022/03/17 09:32:09;;;;;;;16.52;3.95;;;7.90;99.90;;;;;;4997396;28;20042;-73
2022/03/17 09:34:35;;;;;;;28.48;4.35;;;7.90;99.90;;;;;;4997061;28;20039;-73
2022/03/17 09:37:01;;;;;;;23.75;4.47;;;8.00;99.90;;;;;;4997110;28;20057;-73
2022/03/17 09:39:45;;;;;;;26.83;5.07;;;8.10;99.90;;;;;;4997195;28;20034;-74
2022/03/17 09:42:15;;;;;;;17.05;3.58;;;8.20;99.90;;;;;;5009038;28;20037;-73
2022/03/17 09:44:50;;;;;;;20.58;3.95;;;8.20;99.90;;;;;;5016316;28;20042;-73
2022/03/17 09:47:20;;;;;;;19.70;3.67;;;8.20;99.90;;;;;;5016315;28;20045;-72
2022/03/17 09:49:48;;;;;;;14.40;4.65;;;8.20;99.90;;;;;;5016041;28;20135;-73
2022/03/17 09:52:17;;;;;;;22.77;4.55;;;8.30;99.90;;;;;;5016296;28;20052;-73
2022/03/17 09:54:44;;;;;;;16.70;4.07;;;8.30;99.90;;;;;;5016274;28;20052;-73
2022/03/17 09:57:11;;;;;;;20.33;3.90;;;8.30;99.90;;;;;;5001460;28;20046;-73
2022/03/17 09:59:36;;;;;;;23.38;5.10;;;8.50;99.90;;;;;;4995996;28;20395;-73
2022/03/17 10:02:02;;;;;;;20.13;4.28;;;8.40;99.90;;;;;;4995551;28;20125;-73
2022/03/17 10:04:32;;;;;;;19.83;4.43;;;8.50;99.90;;;;;;4996274;28;20034;-74
2022/03/17 10:06:59;;;;;;;20.00;5.53;;;8.50;99.90;;;;;;4996836;28;20352;-74
2022/03/17 10:09:28;;;;;;;20.75;4.90;;;8.70;99.90;;;;;;4996705;28;20092;-72
2022/03/17 10:12:01;;;;;;;21.88;5.03;;;8.70;99.90;;;;;;4996064;28;20046;-73
2022/03/17 10:14:42;;;;;;;17.42;4.50;;;8.60;99.90;;;;;;4995986;28;20058;-73
2022/03/17 10:17:29;;;;;;;18.55;4.07;;;8.60;99.90;;;;;;4995767;28;20034;-73
2022/03/17 10:20:13;;;;;;;15.77;3.90;;;8.60;99.90;;;;;;4996378;28;20433;-73
2022/03/17 10:22:55;;;;;;;28.05;5.88;;;8.50;99.90;;;;;;4996314;28;20043;-73
2022/03/17 10:25:23;;;;;;;24.13;5.05;;;8.50;99.90;;;;;;4995765;28;20109;-74
2022/03/17 10:27:49;;;;;;;23.35;4.57;;;8.80;99.90;;;;;;4996075;28;20097;-73
2022/03/17 10:30:35;;;;;;;21.45;4.05;;;8.60;99.90;;;;;;4996064;28;20046;-73
2022/03/17 10:33:14;;;;;;;21.95;4.68;;;8.60;99.90;;;;;;4995245;28;20049;-73
2022/03/17 10:35:45;;;;;;;20.40;5.03;;;8.50;99.90;;;;;;4995932;28;20074;-73
2022/03/17 10:38:16;;;;;;;18.02;5.07;;;8.70;99.90;;;;;;4995800;28;20058;-73
2022/03/17 10:40:43;;;;;;;17.08;4.72;;;8.60;99.90;;;;;;4995386;28;20053;-73
2022/03/17 10:43:23;;;;;;;17.10;5.28;;;8.50;99.90;;;;;;4995852;28;20039;-73
2022/03/17 10:46:06;;;;;;;20.60;4.57;;;8.50;99.90;;;;;;4996135;28;20109;-73
2022/03/17 10:48:31;;;;;;;21.65;4.00;;;8.60;99.90;;;;;;4995542;28;20524;-73
2022/03/17 10:50:57;;;;;;;21.17;5.30;;;8.70;99.90;;;;;;4996026;28;20129;-73
2022/03/17 10:53:30;;;;;;;19.80;5.32;;;8.70;99.90;;;;;;4996218;28;20046;-73
2022/03/17 10:56:12;;;;;;;20.58;6.15;;;8.70;99.90;;;;;;4995326;28;20117;-73
2022/03/17 10:58:43;;;;;;;24.23;5.20;;;8.90;99.90;;;;;;5005397;28;20100;-73
2022/03/17 11:01:09;;;;;;;19.88;4.50;;;9.00;99.90;;;;;;5013111;28;20045;-73
2022/03/17 11:03:35;;;;;;;21.40;4.82;;;8.80;99.90;;;;;;5015252;28;20053;-73
2022/03/17 11:06:04;;;;;;;14.63;3.83;;;8.80;99.90;;;;;;5015081;28;20214;-73
2022/03/17 11:08:31;;;;;;;25.33;5.32;;;9.10;99.90;;;;;;5015244;28;20049;-73
2022/03/17 11:10:59;;;;;;;19.73;4.55;;;9.10;99.90;;;;;;4995713;28;20061;-73
2022/03/17 11:13:26;;;;;;;19.33;4.25;;;9.10;99.90;;;;;;5014646;28;20038;-73
2022/03/17 11:16:04;;;;;;;24.02;4.95;;;9.00;99.90;;;;;;5015496;28;20128;-73
2022/03/17 11:18:38;;;;;;;11.10;3.40;;;9.10;99.90;;;;;;5014959;28;20052;-73
2022/03/17 11:21:26;;;;;;;19.95;5.35;;;9.30;99.90;;;;;;5014875;28;20056;-73
2022/03/17 11:24:05;;;;;;;22.98;4.32;;;9.20;99.90;;;;;;5014023;28;20480;-74
2022/03/17 11:26:36;;;;;;;22.23;4.47;;;9.00;99.90;;;;;;5014057;28;20048;-73
2022/03/17 11:29:04;;;;;;;22.35;4.00;;;9.10;99.90;;;;;;5014838;28;20061;-73
2022/03/17 11:31:48;;;;;;;20.08;5.32;;;9.10;99.90;;;;;;4997244;28;20104;-73
2022/03/17 11:34:14;;;;;;;16.20;4.53;;;9.20;99.90;;;;;;5014623;28;20073;-73
2022/03/17 11:37:15;;;;;;;22.27;5.53;;;9.30;99.90;;;;;;5014532;28;20046;-73
2022/03/17 11:40:13;;;;;;;22.70;4.63;;;9.40;99.90;;;;;;5014629;28;20060;-73
2022/03/17 11:42:40;;;;;;;20.17;4.85;;;9.60;99.90;;;;;;4995053;28;20123;-73
2022/03/17 11:45:15;;;;;;;17.83;3.33;;;9.40;99.90;;;;;;4999528;28;20042;-73
2022/03/17 11:47:48;;;;;;;15.02;3.95;;;9.20;99.90;;;;;;4999622;28;20058;-73
2022/03/17 11:50:36;;;;;;;18.98;4.85;;;9.30;99.90;;;;;;4999052;28;20132;-73
2022/03/17 11:53:03;;;;;;;16.38;4.40;;;9.40;99.90;;;;;;4999717;28;20046;-73
2022/03/17 11:55:41;;;;;;;20.52;4.38;;;9.80;99.90;;;;;;4998566;28;20467;-73
2022/03/17 11:58:16;;;;;;;19.90;4.07;;;9.50;99.90;;;;;;4998609;28;20141;-73
2022/03/17 12:00:49;;;;;;;;;;;9.30;99.90;;;;;;4998665;28;20115;-74
2022/03/17 12:03:26;;;;;;;14.40;3.58;;;9.40;99.90;;;;;;4998732;28;20239;-73
2022/03/17 12:06:16;;;;;;;19.50;4.43;;;9.20;99.90;;;;;;4998606;28;20133;-73
2022/03/17 12:09:07;;;;;;;20.70;5.25;;;9.40;99.90;;;;;;4998287;28;20109;-73
2022/03/17 12:11:42;;;;;;;15.00;3.97;;;9.30;99.90;;;;;;4998531;28;20038;-73
2022/03/17 12:14:11;;;;;;;19.75;4.93;;;9.40;99.90;;;;;;4998086;28;20453;-73
2022/03/17 12:16:40;;;;;;;17.27;5.18;;;9.30;99.90;;;;;;4998320;28;20052;-73
2022/03/17 12:19:05;;;;;;;14.27;3.60;;;9.20;99.90;;;;;;4998422;28;20058;-74
2022/03/17 12:21:57;;;;;;;15.95;4.05;;;9.20;99.90;;;;;;4998328;28;20042;-73
2022/03/17 12:24:45;;;;;;;19.42;4.72;;;9.20;99.90;;;;;;4998016;28;20054;-73
2022/03/17 12:27:29;;;;;;;18.23;4.70;;;9.30;99.90;;;;;;4997958;28;20053;-73
2022/03/17 12:30:12;;;;;;;18.50;3.97;;;9.30;99.90;;;;;;4998669;28;20096;-73
2022/03/17 12:32:49;;;;;;;14.15;3.28;;;9.40;99.90;;;;;;4997699;28;20445;-74
2022/03/17 12:35:17;;;;;;;11.93;3.35;;;9.50;99.90;;;;;;4998045;28;20125;-73
2022/03/17 12:37:44;;;;;;;14.63;4.10;;;9.30;99.90;;;;;;4998101;28;20038;-74
2022/03/17 12:40:20;;;;;;;23.00;4.07;;;9.60;99.90;;;;;;4997815;28;20078;-73
2022/03/17 12:42:50;;;;;;;12.00;3.25;;;9.50;99.90;;;;;;4996878;28;20487;-73
2022/03/17 12:45:18;;;;;;;18.65;3.28;;;9.60;99.90;;;;;;4997638;28;20100;-73
2022/03/17 12:47:49;;;;;;;18.38;3.33;;;9.50;99.90;;;;;;4997051;28;20057;-73
2022/03/17 12:50:18;;;;;;;12.93;3.35;;;9.60;99.90;;;;;;4998027;28;20043;-73
2022/03/17 12:52:45;;;;;;;16.42;3.72;;;9.80;99.90;;;;;;4998040;28;20042;-73
2022/03/17 12:55:21;;;;;;;20.20;4.18;;;9.70;99.90;;;;;;4996685;28;20038;-74
2022/03/17 12:57:47;;;;;;;17.25;3.00;;;9.60;99.90;;;;;;4999056;28;20046;-74
2022/03/17 13:00:20;;;;;;;11.38;3.10;;;9.80;99.90;;;;;;5017281;28;20064;-73